Terminal Aerodrome Forecast
Issued by NWS

Home | Current Version | Previous Version | Text Only | Print | Product List | Glossary On
Versions: 1 2 3 4 5 6 7 8 9 10 11 12 13 14
000
FTUS43 KGRB 122300
TAFAUW
TAF
KAUW 122329Z 1300/1324 26007KT 6SM -SHRA BR SCT025 OVC090
      TEMPO 1300/1302 4SM SHRA BR BKN025
     FM130200 26005KT P6SM SCT025 BKN100
     FM130600 29007KT P6SM SCT100
     FM131400 29012G18KT P6SM SCT050=

USA.gov is the U.S. government's official web portal to all federal, state and local government web resources and services.